createdAt,value
2023-03-17T00:00:55.073Z,9.25
2023-03-17T00:03:58.831Z,8.27
2023-03-17T00:07:01.380Z,8.75
2023-03-17T00:10:04.265Z,13.07
2023-03-17T00:13:07.230Z,10.60
2023-03-17T00:16:25.636Z,15.32
2023-03-17T00:19:33.930Z,13.38
2023-03-17T00:22:36.223Z,10.70
2023-03-17T00:25:43.164Z,10.77
2023-03-17T00:28:45.477Z,13.23
2023-03-17T00:31:48.154Z,23.52
2023-03-17T00:34:52.136Z,33.65
2023-03-17T00:37:57.299Z,36.75
2023-03-17T00:40:59.641Z,19.38
2023-03-17T00:44:01.914Z,25.63
2023-03-17T00:47:04.537Z,23.98
2023-03-17T00:50:10.333Z,38.90
2023-03-17T00:53:15.005Z,33.90
2023-03-17T00:56:19.213Z,29.05
2023-03-17T00:59:39.685Z,43.50
2023-03-17T01:02:46.750Z,44.88
2023-03-17T01:05:49.878Z,44.47
2023-03-17T01:08:52.404Z,38.90
2023-03-17T01:11:55.785Z,47.92
2023-03-17T01:14:58.146Z,39.17
2023-03-17T01:18:02.744Z,37.00
2023-03-17T01:21:05.555Z,44.80
2023-03-17T01:24:08.423Z,39.67
2023-03-17T01:27:11.550Z,37.42
2023-03-17T01:30:20.596Z,36.33
2023-03-17T01:33:23.009Z,54.97
2023-03-17T01:36:25.588Z,30.92
2023-03-17T01:39:28.439Z,18.98
2023-03-17T01:42:30.811Z,22.10
2023-03-17T01:46:12.804Z,25.00
2023-03-17T01:49:27.186Z,28.10
2023-03-17T01:52:29.643Z,22.42
2023-03-17T01:55:32.521Z,29.20
2023-03-17T01:58:35.573Z,33.15
2023-03-17T02:01:42.752Z,37.63
2023-03-17T02:04:45.060Z,54.00
2023-03-17T02:07:47.760Z,66.53
2023-03-17T02:10:50.754Z,73.07
2023-03-17T02:13:53.671Z,87.13
2023-03-17T02:16:57.576Z,100.47
2023-03-17T02:20:18.667Z,107.82
2023-03-17T02:23:23.986Z,104.63
2023-03-17T02:26:27.023Z,117.65
2023-03-17T02:29:30.775Z,121.97
2023-03-17T02:32:36.206Z,108.10
2023-03-17T02:35:39.668Z,110.47
2023-03-17T02:38:43.896Z,95.88
2023-03-17T02:41:46.241Z,72.50
2023-03-17T02:44:49.958Z,66.50
2023-03-17T02:47:55.343Z,56.60
2023-03-17T02:50:57.776Z,63.58
2023-03-17T02:54:00.060Z,45.40
2023-03-17T02:57:02.323Z,59.20
2023-03-17T03:00:04.982Z,63.60
2023-03-17T03:03:07.620Z,46.63
2023-03-17T03:06:10.363Z,59.55
2023-03-17T03:09:13.362Z,47.22
2023-03-17T03:12:16.134Z,36.70
2023-03-17T03:15:18.457Z,44.85
2023-03-17T03:18:20.786Z,42.57
2023-03-17T03:21:23.358Z,58.80
2023-03-17T03:24:25.725Z,39.22
2023-03-17T03:27:28.031Z,39.70
2023-03-17T03:30:30.478Z,35.55
2023-03-17T03:33:33.736Z,32.30
2023-03-17T03:36:37.056Z,50.13
2023-03-17T03:39:39.361Z,38.50
2023-03-17T03:42:42.140Z,34.20
2023-03-17T03:45:44.553Z,42.30
2023-03-17T03:48:46.842Z,35.20
2023-03-17T03:51:49.103Z,49.38
2023-03-17T03:54:51.451Z,54.88
2023-03-17T03:57:53.726Z,54.15
2023-03-17T04:00:56.102Z,53.65
2023-03-17T04:03:58.384Z,62.63
2023-03-17T04:07:01.515Z,54.42
2023-03-17T04:10:04.102Z,40.42
2023-03-17T04:13:06.721Z,46.45
2023-03-17T04:16:09.223Z,44.70
2023-03-17T04:19:11.705Z,52.70
2023-03-17T04:22:14.092Z,52.83
2023-03-17T04:25:16.526Z,76.97
2023-03-17T04:28:19.614Z,87.65
2023-03-17T04:31:22.138Z,90.72
2023-03-17T04:34:24.478Z,76.67
2023-03-17T04:37:26.831Z,54.35
2023-03-17T04:40:29.284Z,68.13
2023-03-17T04:43:31.818Z,52.13
2023-03-17T04:46:34.501Z,46.55
2023-03-17T04:49:36.980Z,45.40
2023-03-17T04:52:39.553Z,43.13
2023-03-17T04:55:42.171Z,37.78
2023-03-17T04:58:44.584Z,41.45
2023-03-17T05:01:47.192Z,34.80
2023-03-17T05:04:49.511Z,42.17
2023-03-17T05:07:51.744Z,33.72
2023-03-17T05:10:55.326Z,34.42
2023-03-17T05:13:57.775Z,42.00
2023-03-17T05:17:00.027Z,42.33
2023-03-17T05:20:02.396Z,44.67
2023-03-17T05:23:04.690Z,49.70
2023-03-17T05:26:07.072Z,59.65
2023-03-17T05:29:09.957Z,56.58
2023-03-17T05:32:12.417Z,56.13
2023-03-17T05:35:15.257Z,53.40
2023-03-17T05:38:17.735Z,54.92
2023-03-17T05:41:20.507Z,50.65
2023-03-17T05:44:22.804Z,39.78
2023-03-17T05:47:25.853Z,40.58
2023-03-17T05:50:28.302Z,40.77
2023-03-17T05:53:31.277Z,37.50
2023-03-17T05:56:33.955Z,36.97
2023-03-17T05:59:37.222Z,32.88
2023-03-17T06:02:40.065Z,30.95
2023-03-17T06:05:42.629Z,30.87
2023-03-17T06:08:45.285Z,29.33
2023-03-17T06:11:47.679Z,28.55
2023-03-17T06:14:49.974Z,26.42
2023-03-17T06:17:52.984Z,24.42
2023-03-17T06:20:56.101Z,25.30
2023-03-17T06:23:58.410Z,25.30
2023-03-17T06:27:01.528Z,23.98
2023-03-17T06:30:08.760Z,21.30
2023-03-17T06:33:18.410Z,24.92
2023-03-17T06:36:20.832Z,27.03
2023-03-17T06:39:23.590Z,26.90
2023-03-17T06:42:25.941Z,33.08
2023-03-17T06:45:28.415Z,33.67
2023-03-17T06:48:30.999Z,22.80
2023-03-17T06:51:34.259Z,25.27
2023-03-17T06:54:37.073Z,32.90
2023-03-17T06:57:39.559Z,33.28
2023-03-17T07:00:42.259Z,24.77
2023-03-17T07:03:45.348Z,24.65
2023-03-17T07:06:47.758Z,17.33
2023-03-17T07:09:50.099Z,18.60
2023-03-17T07:12:52.405Z,17.92
2023-03-17T07:15:55.586Z,19.63
2023-03-17T07:18:58.254Z,10.68
2023-03-17T07:22:00.530Z,13.43
2023-03-17T07:25:02.900Z,17.05
2023-03-17T07:28:05.297Z,13.07
2023-03-17T07:31:14.206Z,12.45
2023-03-17T07:34:16.991Z,15.32
2023-03-17T07:37:19.600Z,13.53
2023-03-17T07:40:22.029Z,17.40
2023-03-17T07:43:24.326Z,14.35
2023-03-17T07:46:26.800Z,10.13
2023-03-17T07:49:40.799Z,14.18
2023-03-17T07:52:43.854Z,12.13
2023-03-17T07:55:46.352Z,5.88
2023-03-17T07:58:50.829Z,4.32
2023-03-17T08:01:53.359Z,6.20
2023-03-17T08:04:56.825Z,5.40
2023-03-17T08:07:59.625Z,11.53
2023-03-17T08:11:04.593Z,5.03
2023-03-17T08:14:25.821Z,5.25
2023-03-17T08:17:28.183Z,3.42
2023-03-17T08:20:32.680Z,5.25
2023-03-17T08:23:37.762Z,5.97
2023-03-17T08:27:12.745Z,7.40
2023-03-17T08:30:28.540Z,5.53
2023-03-17T08:33:33.017Z,7.10
2023-03-17T08:36:35.764Z,5.25
2023-03-17T08:39:38.535Z,3.47
2023-03-17T08:42:41.347Z,5.57
2023-03-17T08:45:43.980Z,3.55
2023-03-17T08:48:48.370Z,5.78
2023-03-17T08:51:50.998Z,3.92
2023-03-17T08:54:54.157Z,5.73
2023-03-17T08:57:56.432Z,3.65
2023-03-17T09:01:00.657Z,4.25
2023-03-17T09:04:03.271Z,3.00
2023-03-17T09:07:09.485Z,1.80
2023-03-17T09:10:13.765Z,4.80
2023-03-17T09:13:17.885Z,3.30
2023-03-17T09:16:20.292Z,3.75
2023-03-17T09:19:23.859Z,6.13
2023-03-17T09:22:42.049Z,12.05
2023-03-17T09:25:45.091Z,5.07
2023-03-17T09:28:47.999Z,3.08
2023-03-17T09:31:50.885Z,5.15
2023-03-17T09:34:53.940Z,4.18
2023-03-17T09:37:56.763Z,6.13
2023-03-17T09:41:29.181Z,3.77
2023-03-17T09:48:46.991Z,4.18
2023-03-17T09:51:51.197Z,5.00
2023-03-17T09:55:35.230Z,5.97
2023-03-17T10:14:51.264Z,3.50
2023-03-17T10:40:46.519Z,3.92
2023-03-17T10:43:53.573Z,3.55
2023-03-17T10:46:58.660Z,6.07
2023-03-17T10:50:38.340Z,6.40
2023-03-17T10:53:44.734Z,5.32
2023-03-17T10:56:50.675Z,3.17
2023-03-17T10:59:57.809Z,5.65
2023-03-17T11:03:00.235Z,4.77
2023-03-17T11:23:29.530Z,5.87
2023-03-17T11:26:51.772Z,4.53
2023-03-17T11:30:36.579Z,4.25
2023-03-17T11:33:46.309Z,5.70
2023-03-17T11:55:22.739Z,5.78
2023-03-17T11:58:47.214Z,5.25
2023-03-17T12:02:03.327Z,4.03
2023-03-17T12:09:45.771Z,4.78
2023-03-17T12:13:00.497Z,4.32
2023-03-17T12:16:12.334Z,4.13
2023-03-17T12:19:28.488Z,5.87
2023-03-17T12:22:46.075Z,4.90
2023-03-17T12:26:09.465Z,3.22
2023-03-17T12:29:30.731Z,4.35
2023-03-17T12:32:42.956Z,6.50
2023-03-17T12:36:18.276Z,5.73
2023-03-17T12:39:45.536Z,3.75
2023-03-17T12:43:49.940Z,5.95
2023-03-17T12:47:43.384Z,5.13
2023-03-17T12:51:06.878Z,5.45
2023-03-17T12:55:25.757Z,3.07
2023-03-17T13:14:43.978Z,6.97
2023-03-17T13:17:46.939Z,4.60
2023-03-17T13:20:59.580Z,4.38
2023-03-17T13:24:17.327Z,4.97
2023-03-17T13:28:41.851Z,4.60
2023-03-17T13:38:07.145Z,6.17
2023-03-17T13:41:43.219Z,5.78
2023-03-17T13:45:35.863Z,6.20
2023-03-17T13:48:38.369Z,4.05
2023-03-17T13:56:41.604Z,4.57
2023-03-17T14:00:00.954Z,9.38
2023-03-17T14:03:43.279Z,3.10
2023-03-17T14:06:46.303Z,10.48
2023-03-17T14:09:53.357Z,3.42
2023-03-17T14:13:20.015Z,6.40
2023-03-17T14:16:32.802Z,4.30
2023-03-17T14:19:39.110Z,4.80
2023-03-17T14:22:45.502Z,6.47
2023-03-17T14:25:50.549Z,5.97
2023-03-17T14:28:53.518Z,6.23
2023-03-17T14:32:14.214Z,4.72
2023-03-17T14:35:17.205Z,5.85
2023-03-17T14:38:21.616Z,9.18
2023-03-17T14:41:29.207Z,6.10
2023-03-17T14:45:06.643Z,8.10
2023-03-17T14:48:15.890Z,4.43
2023-03-17T14:52:29.927Z,5.90
2023-03-17T14:55:40.691Z,4.82
2023-03-17T14:58:46.452Z,4.70
2023-03-17T15:11:48.202Z,8.50
2023-03-17T15:24:03.678Z,6.55
2023-03-17T15:24:51.440Z,6.17
2023-03-17T15:27:56.849Z,3.40
2023-03-17T15:31:11.505Z,5.78
2023-03-17T15:34:15.564Z,3.85
2023-03-17T15:37:24.874Z,4.30
2023-03-17T15:40:27.947Z,3.03
2023-03-17T15:43:30.715Z,5.65
2023-03-17T15:46:33.785Z,5.20
2023-03-17T15:49:36.239Z,6.63
2023-03-17T15:52:39.194Z,6.57
2023-03-17T15:55:41.552Z,48.17
2023-03-17T15:58:43.887Z,13.60
2023-03-17T16:01:46.985Z,4.72
2023-03-17T16:04:49.601Z,4.60
2023-03-17T16:07:53.452Z,7.53
2023-03-17T16:10:56.026Z,6.73
2023-03-17T16:13:59.802Z,6.57
2023-03-17T16:17:02.091Z,6.10
2023-03-17T16:20:06.048Z,6.13
2023-03-17T16:23:19.935Z,4.20
2023-03-17T16:26:22.399Z,6.37
2023-03-17T16:29:24.778Z,4.07
2023-03-17T16:32:27.311Z,6.93
2023-03-17T16:35:30.037Z,11.63
2023-03-17T16:38:33.962Z,5.97
2023-03-17T16:41:36.268Z,6.20
2023-03-17T16:44:38.640Z,4.72
2023-03-17T16:47:41.035Z,6.22
2023-03-17T16:50:44.077Z,16.70
2023-03-17T16:53:46.943Z,9.90
2023-03-17T16:56:49.345Z,24.67
2023-03-17T16:59:51.731Z,40.78
2023-03-17T17:02:54.250Z,27.90
2023-03-17T17:05:56.632Z,15.38
2023-03-17T17:08:58.944Z,8.65
2023-03-17T17:12:01.250Z,26.90
2023-03-17T17:15:03.745Z,14.02
2023-03-17T17:18:08.519Z,21.67
2023-03-17T17:21:11.023Z,44.60
2023-03-17T17:24:14.154Z,32.92
2023-03-17T17:27:16.466Z,14.37
2023-03-17T17:30:21.136Z,8.55
2023-03-17T17:33:24.420Z,10.13
2023-03-17T17:36:27.214Z,9.02
2023-03-17T17:39:29.513Z,12.90
2023-03-17T17:42:32.021Z,9.47
2023-03-17T17:45:34.299Z,9.77
2023-03-17T17:48:36.579Z,6.25
2023-03-17T17:51:38.854Z,9.93
2023-03-17T17:54:41.106Z,9.55
2023-03-17T17:57:43.534Z,8.10
2023-03-17T18:00:46.297Z,8.65
2023-03-17T18:03:48.766Z,12.02
2023-03-17T18:06:51.093Z,7.95
2023-03-17T18:09:53.426Z,9.73
2023-03-17T18:12:56.334Z,8.30
2023-03-17T18:15:58.669Z,14.10
2023-03-17T18:19:00.987Z,6.00
2023-03-17T18:22:03.838Z,10.57
2023-03-17T18:25:09.733Z,8.88
2023-03-17T18:28:12.599Z,6.67
2023-03-17T18:31:20.911Z,10.43
2023-03-17T18:34:26.069Z,12.13
2023-03-17T18:37:28.968Z,7.05
2023-03-17T18:40:31.422Z,14.68
2023-03-17T18:43:34.137Z,11.67
2023-03-17T18:46:37.289Z,11.95
2023-03-17T18:49:39.591Z,11.50
2023-03-17T18:52:43.900Z,7.85
2023-03-17T18:55:46.293Z,11.30
2023-03-17T18:58:48.709Z,17.33
2023-03-17T19:01:51.334Z,20.50
2023-03-17T19:04:53.607Z,25.23
2023-03-17T19:07:55.962Z,12.25
2023-03-17T19:10:58.235Z,13.80
2023-03-17T19:14:00.541Z,19.97
2023-03-17T19:17:04.000Z,24.35
2023-03-17T19:20:07.140Z,33.03
2023-03-17T19:23:09.462Z,23.08
2023-03-17T19:26:11.815Z,21.90
2023-03-17T19:29:14.562Z,15.23
2023-03-17T19:32:17.235Z,13.45
2023-03-17T19:35:19.484Z,13.82
2023-03-17T19:38:22.421Z,12.32
2023-03-17T19:41:24.687Z,14.77
2023-03-17T19:44:27.141Z,12.73
2023-03-17T19:47:29.508Z,15.15
2023-03-17T19:50:32.918Z,13.27
2023-03-17T19:53:37.535Z,13.30
2023-03-17T19:56:40.047Z,10.95
2023-03-17T19:59:42.723Z,16.13
2023-03-17T20:02:45.596Z,10.77
2023-03-17T20:05:48.078Z,13.98
2023-03-17T20:08:50.713Z,13.07
2023-03-17T20:11:54.111Z,15.23
2023-03-17T20:14:56.478Z,16.93
2023-03-17T20:17:58.768Z,19.10
2023-03-17T20:21:05.235Z,19.60
2023-03-17T20:24:11.035Z,15.43
2023-03-17T20:27:15.960Z,30.88
2023-03-17T20:30:18.417Z,18.23
2023-03-17T20:33:21.142Z,13.65
2023-03-17T20:36:24.114Z,13.23
2023-03-17T20:39:26.543Z,15.82
2023-03-17T20:42:28.865Z,15.70
2023-03-17T20:45:31.335Z,14.40
2023-03-17T20:48:34.672Z,13.95
2023-03-17T20:51:37.885Z,11.88
2023-03-17T20:54:41.018Z,16.02
2023-03-17T20:57:47.676Z,10.75
2023-03-17T21:00:51.180Z,16.63
2023-03-17T21:03:53.582Z,15.02
2023-03-17T21:06:55.985Z,13.10
2023-03-17T21:09:59.583Z,12.00
2023-03-17T21:13:02.116Z,15.02
2023-03-17T21:16:04.629Z,13.07
2023-03-17T21:19:09.686Z,19.20
2023-03-17T21:22:12.624Z,19.48
2023-03-17T21:25:14.982Z,14.68
2023-03-17T21:28:17.277Z,15.32
2023-03-17T21:31:19.722Z,12.70
2023-03-17T21:34:22.082Z,13.75
2023-03-17T21:37:24.582Z,12.60
2023-03-17T21:40:26.982Z,13.15
2023-03-17T21:43:29.287Z,18.13
2023-03-17T21:46:32.252Z,17.07
2023-03-17T21:49:34.643Z,11.93
2023-03-17T21:52:37.288Z,14.50
2023-03-17T21:55:40.143Z,11.23
2023-03-17T21:58:42.501Z,12.07
2023-03-17T22:01:45.311Z,13.53
2023-03-17T22:04:48.792Z,13.40
2023-03-17T22:07:51.232Z,13.73
2023-03-17T22:10:53.553Z,14.45
2023-03-17T22:13:56.036Z,12.38
2023-03-17T22:16:58.449Z,11.47
2023-03-17T22:20:00.797Z,9.38
2023-03-17T22:23:03.679Z,8.55
2023-03-17T22:26:06.626Z,12.93
2023-03-17T22:29:09.071Z,11.95
2023-03-17T22:32:11.441Z,9.40
2023-03-17T22:35:13.851Z,8.55
2023-03-17T22:38:16.171Z,8.75
2023-03-17T22:41:20.953Z,9.50
2023-03-17T22:44:23.276Z,8.77
2023-03-17T22:47:25.658Z,6.00
2023-03-17T22:50:28.096Z,8.02
2023-03-17T22:53:31.624Z,6.72
2023-03-17T22:56:34.033Z,5.28
2023-03-17T22:59:36.294Z,10.15
2023-03-17T23:02:38.643Z,5.53
2023-03-17T23:05:48.349Z,6.97
2023-03-17T23:08:51.021Z,6.35
2023-03-17T23:11:53.598Z,8.68
2023-03-17T23:14:56.076Z,7.28
2023-03-17T23:17:58.890Z,5.83
2023-03-17T23:21:02.495Z,7.55
2023-03-17T23:24:07.843Z,8.10
2023-03-17T23:27:10.755Z,5.60
2023-03-17T23:30:14.450Z,6.55
2023-03-17T23:33:17.631Z,5.60
2023-03-17T23:36:19.998Z,4.25
2023-03-17T23:39:22.278Z,5.50
2023-03-17T23:42:24.631Z,5.57
2023-03-17T23:45:28.091Z,9.55
2023-03-17T23:48:30.606Z,7.30
2023-03-17T23:51:34.484Z,5.97
2023-03-17T23:54:37.260Z,6.40
2023-03-17T23:57:39.637Z,7.68
